Time;durP1;ratioP1;P1;durP2;ratioP2;P2;SDS_P1;SDS_P2;PMS_P1;PMS_P2;Temp;Humidity;BMP_temperature;BMP_pressure;BME280_temperature;BME280_humidity;BME280_pressure;Samples;Min_cycle;Max_cycle;Signal;HPM_P1;HPM_P2
2020/12/02 00:01:39;;;;;;;21.97;7.20;;;2.70;99.90;;;;;;10376552;28;83696;-76
2020/12/02 00:06:41;;;;;;;20.20;7.00;;;2.60;99.90;;;;;;10377154;28;82636;-76
2020/12/02 00:11:46;;;;;;;23.47;7.77;;;2.60;99.90;;;;;;10376501;28;82782;-77
2020/12/02 00:16:48;;;;;;;26.23;7.77;;;2.70;99.90;;;;;;10376308;28;85481;-77
2020/12/02 00:22:07;;;;;;;19.10;7.20;;;2.60;99.90;;;;;;10373950;28;82277;-77
2020/12/02 00:27:12;;;;;;;19.27;7.03;;;2.70;99.90;;;;;;10375115;28;83653;-75
2020/12/02 00:32:24;;;;;;;20.57;8.37;;;2.70;99.90;;;;;;10373316;28;83997;-76
2020/12/02 00:37:27;;;;;;;17.37;6.37;;;2.70;99.90;;;;;;10373756;28;85180;-76
2020/12/02 00:42:30;;;;;;;19.80;7.47;;;2.70;99.90;;;;;;10374130;28;82938;-77
2020/12/02 00:47:34;;;;;;;18.47;6.53;;;2.70;99.90;;;;;;10377499;28;82690;-77
2020/12/02 00:52:36;;;;;;;22.57;7.07;;;2.80;99.90;;;;;;10374223;28;82968;-76
2020/12/02 00:57:39;;;;;;;23.23;7.23;;;2.70;99.90;;;;;;10376372;28;83330;-76
2020/12/02 01:02:45;;;;;;;15.77;6.17;;;2.70;99.90;;;;;;10374794;28;83675;-75
2020/12/02 01:07:47;;;;;;;19.57;7.20;;;2.70;99.90;;;;;;10376329;28;82500;-75
2020/12/02 01:12:50;;;;;;;17.60;7.37;;;2.70;99.90;;;;;;10374097;28;82886;-76
2020/12/02 01:18:21;;;;;;;18.03;6.83;;;2.70;99.90;;;;;;10376343;28;82911;-76
2020/12/02 01:23:26;;;;;;;20.10;7.27;;;2.70;99.90;;;;;;10374178;28;82459;-74
2020/12/02 01:28:32;;;;;;;25.30;8.47;;;2.70;99.90;;;;;;10374129;28;82919;-76
2020/12/02 01:33:34;;;;;;;18.77;7.57;;;2.70;99.90;;;;;;10372515;28;82818;-75
2020/12/02 01:38:39;;;;;;;16.93;6.33;;;2.70;99.90;;;;;;10373786;28;82946;-75
2020/12/02 01:43:42;;;;;;;17.40;6.43;;;2.70;99.90;;;;;;10373457;28;82931;-75
2020/12/02 01:49:13;;;;;;;22.50;7.10;;;2.70;99.90;;;;;;10373094;28;82615;-76
2020/12/02 01:54:24;;;;;;;23.43;7.33;;;2.60;99.90;;;;;;10371600;28;82893;-76
2020/12/02 01:59:35;;;;;;;21.13;6.83;;;2.70;99.90;;;;;;10373712;28;84152;-76
2020/12/02 02:04:45;;;;;;;20.17;7.47;;;2.70;99.90;;;;;;10392286;28;82793;-75
2020/12/02 02:09:48;;;;;;;17.43;6.17;;;2.70;99.90;;;;;;10372972;28;82710;-75
2020/12/02 02:15:05;;;;;;;15.70;6.20;;;2.70;99.90;;;;;;10372284;28;82911;-77
2020/12/02 02:20:09;;;;;;;23.63;8.23;;;2.70;99.90;;;;;;10371222;28;83797;-76
2020/12/02 02:25:13;;;;;;;22.87;7.63;;;2.80;99.90;;;;;;10373177;28;82629;-76
2020/12/02 02:30:17;;;;;;;22.07;7.60;;;2.80;99.90;;;;;;10373835;28;82850;-76
2020/12/02 02:35:19;;;;;;;23.17;7.80;;;2.80;99.90;;;;;;10373507;28;83298;-75
2020/12/02 02:40:20;;;;;;;23.00;7.43;;;2.90;99.90;;;;;;10370689;28;83429;-73
2020/12/02 02:45:26;;;;;;;19.73;7.73;;;2.90;99.90;;;;;;10372321;28;82702;-75
2020/12/02 02:50:28;;;;;;;17.93;7.37;;;3.00;99.90;;;;;;10370147;28;83978;-75
2020/12/02 02:55:30;;;;;;;17.70;6.83;;;2.90;99.90;;;;;;10375664;28;84055;-75
2020/12/02 03:00:34;;;;;;;21.63;6.60;;;2.90;99.90;;;;;;10369196;28;82606;-75
2020/12/02 03:05:36;;;;;;;20.47;7.43;;;2.90;99.90;;;;;;10370668;28;84560;-75
2020/12/02 03:10:41;;;;;;;24.57;6.97;;;2.90;99.90;;;;;;10378853;28;83715;-76
2020/12/02 03:15:46;;;;;;;19.80;6.53;;;2.90;99.90;;;;;;10375733;28;82391;-73
2020/12/02 03:20:52;;;;;;;19.27;7.17;;;2.80;99.90;;;;;;10375639;28;82492;-75
2020/12/02 03:25:54;;;;;;;23.83;6.97;;;2.80;99.90;;;;;;10377839;28;83533;-76
2020/12/02 03:31:04;;;;;;;19.10;6.93;;;2.80;99.90;;;;;;10377267;28;82549;-74
2020/12/02 03:36:07;;;;;;;21.00;7.30;;;2.80;99.90;;;;;;10377921;28;83989;-76
2020/12/02 03:41:10;;;;;;;18.43;7.17;;;2.80;99.90;;;;;;10377225;28;82763;-76
2020/12/02 03:46:13;;;;;;;21.60;8.20;;;2.80;99.90;;;;;;10377245;28;81818;-74
2020/12/02 03:51:15;;;;;;;19.63;7.93;;;2.80;99.90;;;;;;10376225;28;83789;-75
2020/12/02 03:56:19;;;;;;;22.03;7.80;;;2.80;99.90;;;;;;10374744;28;85213;-75
2020/12/02 04:01:22;;;;;;;22.93;7.93;;;2.80;99.90;;;;;;10376455;28;82764;-74
2020/12/02 04:06:24;;;;;;;18.37;7.37;;;2.80;99.90;;;;;;10377390;28;84645;-76
2020/12/02 04:11:26;;;;;;;22.83;8.37;;;2.80;99.90;;;;;;10375354;28;82818;-75
2020/12/02 04:16:29;;;;;;;20.03;7.47;;;2.80;99.90;;;;;;10373226;28;83704;-73
2020/12/02 04:21:34;;;;;;;18.43;7.13;;;2.80;99.90;;;;;;10375848;28;82648;-74
2020/12/02 04:26:36;;;;;;;22.50;7.80;;;2.90;99.90;;;;;;10374336;28;83507;-74
2020/12/02 04:31:39;;;;;;;19.77;6.97;;;2.90;99.90;;;;;;10374910;28;82600;-74
2020/12/02 04:36:41;;;;;;;22.90;8.50;;;2.90;99.90;;;;;;10376454;28;83446;-75
2020/12/02 04:41:43;;;;;;;22.83;8.27;;;2.90;99.90;;;;;;10376079;28;82577;-75
2020/12/02 04:46:46;;;;;;;28.93;8.37;;;3.00;99.90;;;;;;10375678;28;82925;-76
2020/12/02 04:51:50;;;;;;;33.77;9.70;;;2.90;99.90;;;;;;10372054;28;84093;-76
2020/12/02 04:56:52;;;;;;;28.63;9.23;;;3.00;99.90;;;;;;10375074;28;82831;-76
2020/12/02 05:01:56;;;;;;;26.67;10.10;;;3.00;99.90;;;;;;10365244;28;83156;-73
2020/12/02 05:07:14;;;;;;;30.53;9.33;;;3.00;99.90;;;;;;10334271;28;84851;-75
2020/12/02 05:12:24;;;;;;;29.43;9.40;;;3.10;99.90;;;;;;10335171;28;83826;-75
2020/12/02 05:17:29;;;;;;;22.97;8.80;;;3.00;99.90;;;;;;10334744;28;83579;-75
2020/12/02 05:22:34;;;;;;;21.73;8.87;;;3.00;99.90;;;;;;10333711;28;83801;-73
2020/12/02 05:27:37;;;;;;;21.33;7.27;;;3.00;99.90;;;;;;10336186;28;83646;-75
2020/12/02 05:32:40;;;;;;;16.07;6.03;;;3.00;99.90;;;;;;10334129;28;83791;-75
2020/12/02 05:37:50;;;;;;;29.13;9.67;;;2.90;99.90;;;;;;10324944;28;85824;-73
2020/12/02 05:42:55;;;;;;;22.60;9.23;;;2.90;99.90;;;;;;10333634;28;84625;-73
2020/12/02 05:48:00;;;;;;;27.80;8.17;;;2.90;99.90;;;;;;10334393;28;83948;-76
2020/12/02 05:53:15;;;;;;;29.20;10.13;;;2.80;99.90;;;;;;10333548;28;84130;-75
2020/12/02 05:58:20;;;;;;;21.77;8.20;;;2.90;99.90;;;;;;10328562;28;84537;-75
2020/12/02 06:03:24;;;;;;;19.50;7.20;;;2.90;99.90;;;;;;10333767;28;83878;-75
2020/12/02 06:08:35;;;;;;;25.27;9.33;;;2.90;99.90;;;;;;10329204;28;83999;-74
2020/12/02 06:13:39;;;;;;;32.70;9.53;;;2.90;99.90;;;;;;10334207;28;84082;-75
2020/12/02 06:18:41;;;;;;;24.80;8.33;;;3.00;99.90;;;;;;10328872;28;83224;-75
2020/12/02 06:23:46;;;;;;;25.63;8.73;;;3.00;99.90;;;;;;10330160;28;84016;-73
2020/12/02 06:28:49;;;;;;;21.50;7.63;;;3.10;99.90;;;;;;10330293;28;84020;-75
2020/12/02 06:33:52;;;;;;;26.10;8.27;;;3.00;99.90;;;;;;10331422;28;85639;-75
2020/12/02 06:38:57;;;;;;;22.97;8.30;;;3.00;99.90;;;;;;10337621;28;83811;-74
2020/12/02 06:44:03;;;;;;;21.90;7.23;;;3.10;99.90;;;;;;10335234;28;85649;-75
2020/12/02 06:49:06;;;;;;;25.50;8.17;;;3.00;99.90;;;;;;10350972;28;83632;-74
2020/12/02 06:54:08;;;;;;;19.80;7.50;;;3.00;99.90;;;;;;10338421;28;83793;-75
2020/12/02 06:59:09;;;;;;;22.47;7.73;;;3.00;99.90;;;;;;10339518;28;83770;-75
2020/12/02 07:04:22;;;;;;;23.40;7.93;;;3.00;99.90;;;;;;10339155;28;83943;-76
2020/12/02 07:09:24;;;;;;;19.90;8.17;;;3.10;99.90;;;;;;10356659;28;83199;-76
2020/12/02 07:14:32;;;;;;;27.60;8.23;;;3.10;99.90;;;;;;10335091;28;83983;-74
2020/12/02 07:19:40;;;;;;;21.00;7.07;;;3.10;99.90;;;;;;10340763;28;83953;-75
2020/12/02 07:24:45;;;;;;;23.60;7.43;;;3.10;99.90;;;;;;10353327;28;84763;-75
2020/12/02 07:29:55;;;;;;;22.10;8.40;;;3.20;99.90;;;;;;10338992;28;84449;-76
2020/12/02 07:35:01;;;;;;;19.07;7.57;;;3.20;99.90;;;;;;10343044;28;84108;-75
2020/12/02 07:40:06;;;;;;;24.07;7.77;;;3.10;99.90;;;;;;10336127;28;84039;-73
2020/12/02 07:45:21;;;;;;;18.43;6.93;;;3.20;99.90;;;;;;10343634;28;84469;-75
2020/12/02 07:50:30;;;;;;;18.60;6.97;;;3.10;99.90;;;;;;10330785;28;83947;-75
2020/12/02 07:55:37;;;;;;;12.40;5.27;;;3.20;99.90;;;;;;10337102;28;83984;-75
2020/12/02 08:00:43;;;;;;;24.27;7.47;;;3.20;99.90;;;;;;10338907;28;82959;-74
2020/12/02 08:05:53;;;;;;;16.93;7.07;;;3.20;99.90;;;;;;10340901;28;83806;-76
2020/12/02 08:11:05;;;;;;;17.23;6.10;;;3.30;99.90;;;;;;10340598;28;83993;-76
2020/12/02 08:16:07;;;;;;;17.83;6.90;;;3.40;99.90;;;;;;10339176;28;84515;-74
2020/12/02 08:21:12;;;;;;;16.50;7.07;;;3.40;99.90;;;;;;10338806;28;83797;-76
2020/12/02 08:26:18;;;;;;;14.90;6.80;;;3.50;99.90;;;;;;10329690;28;84491;-76
2020/12/02 08:31:25;;;;;;;16.43;6.27;;;3.50;99.90;;;;;;10335899;28;83927;-74
2020/12/02 08:36:27;;;;;;;13.37;6.10;;;3.60;99.90;;;;;;10350711;28;83343;-74
2020/12/02 08:41:40;;;;;;;16.10;5.60;;;3.70;99.90;;;;;;10336578;28;83824;-75
2020/12/02 08:46:48;;;;;;;19.23;6.30;;;3.90;99.90;;;;;;10339534;28;83924;-75
2020/12/02 08:51:50;;;;;;;14.70;5.73;;;4.00;99.90;;;;;;10337339;28;83689;-76
2020/12/02 08:57:01;;;;;;;13.87;5.60;;;4.10;99.90;;;;;;10338821;28;83445;-76
2020/12/02 09:02:09;;;;;;;13.67;5.43;;;4.30;99.90;;;;;;10335816;28;83713;-74
2020/12/02 09:07:11;;;;;;;14.67;5.90;;;4.40;99.90;;;;;;10353334;28;84675;-75
2020/12/02 09:12:14;;;;;;;16.50;6.43;;;4.40;99.90;;;;;;10335200;28;84325;-75
2020/12/02 09:17:15;;;;;;;18.10;6.70;;;4.70;99.90;;;;;;10337765;28;84055;-76
2020/12/02 09:22:17;;;;;;;14.20;6.40;;;4.70;99.90;;;;;;10339231;28;83823;-75
2020/12/02 09:27:20;;;;;;;19.07;6.23;;;4.70;99.90;;;;;;10339307;28;84939;-75
2020/12/02 09:32:21;;;;;;;14.37;5.63;;;4.80;99.90;;;;;;10335352;28;83917;-76
2020/12/02 09:37:23;;;;;;;17.40;6.80;;;4.80;99.90;;;;;;10336864;28;84277;-75
2020/12/02 09:43:04;;;;;;;11.37;4.90;;;4.90;99.90;;;;;;10339065;28;84420;-74
2020/12/02 09:48:12;;;;;;;17.63;5.97;;;4.90;99.90;;;;;;10337791;28;83832;-76
2020/12/02 09:53:18;;;;;;;16.83;6.03;;;4.90;99.90;;;;;;10328126;28;84908;-75
2020/12/02 09:58:23;;;;;;;12.63;5.53;;;5.00;99.90;;;;;;10325617;28;85190;-76
2020/12/02 10:03:46;;;;;;;16.33;6.30;;;4.90;99.90;;;;;;10325101;28;83379;-74
2020/12/02 10:09:12;;;;;;;16.90;6.43;;;4.80;99.80;;;;;;10335637;28;83614;-76
2020/12/02 10:14:59;;;;;;;15.13;5.83;;;4.70;99.60;;;;;;10335017;28;83969;-75
2020/12/02 10:20:28;;;;;;;12.93;4.93;;;4.70;99.70;;;;;;10186876;28;84683;-75
2020/12/02 10:25:50;;;;;;;13.33;5.60;;;4.70;99.70;;;;;;10171205;28;84024;-74
2020/12/02 10:31:09;;;;;;;18.07;5.70;;;4.70;99.60;;;;;;10203634;28;84024;-76
2020/12/02 10:36:12;;;;;;;12.47;5.73;;;4.60;99.50;;;;;;10200935;28;83344;-76
2020/12/02 10:41:29;;;;;;;14.33;5.30;;;4.70;99.50;;;;;;10181484;28;83667;-76
2020/12/02 10:46:53;;;;;;;12.80;5.13;;;4.70;99.60;;;;;;10185426;28;83649;-75
2020/12/02 10:51:57;;;;;;;11.33;4.70;;;4.60;99.50;;;;;;10235720;28;85149;-74
2020/12/02 10:56:59;;;;;;;14.03;5.60;;;4.70;99.50;;;;;;10354832;28;84775;-75
2020/12/02 11:02:04;;;;;;;14.73;5.97;;;4.60;99.30;;;;;;10333910;28;83073;-76
2020/12/02 11:07:22;;;;;;;17.43;6.27;;;4.60;99.50;;;;;;10353800;28;83326;-74
2020/12/02 11:12:41;;;;;;;17.33;6.80;;;4.50;99.40;;;;;;10375360;28;83025;-72
2020/12/02 11:18:12;;;;;;;16.07;6.10;;;4.50;99.40;;;;;;10375492;28;84282;-74
2020/12/02 11:23:24;;;;;;;17.53;6.57;;;4.50;99.40;;;;;;10379861;28;83275;-72
2020/12/02 11:28:26;;;;;;;10.53;4.90;;;4.60;99.40;;;;;;10370697;28;82562;-75
2020/12/02 11:33:43;;;;;;;16.57;5.83;;;4.60;99.30;;;;;;10379598;28;82576;-75
2020/12/02 11:38:54;;;;;;;17.77;5.83;;;4.50;99.30;;;;;;10386616;28;82820;-75
2020/12/02 11:44:04;;;;;;;17.30;6.60;;;4.50;99.40;;;;;;10388334;28;83547;-72
2020/12/02 11:49:17;;;;;;;14.67;5.57;;;4.50;99.30;;;;;;10391197;28;82524;-73
2020/12/02 11:54:21;;;;;;;15.10;6.27;;;4.50;99.30;;;;;;10369475;28;84456;-74
2020/12/02 11:59:26;;;;;;;10.73;4.10;;;4.40;99.20;;;;;;10373792;28;84019;-76
2020/12/02 12:04:47;;;;;;;18.07;5.90;;;4.30;99.10;;;;;;10387861;28;84989;-77
2020/12/02 12:09:54;;;;;;;15.97;5.93;;;4.30;99.20;;;;;;10382543;28;83524;-77
2020/12/02 12:15:06;;;;;;;18.30;5.50;;;4.40;99.60;;;;;;10382766;28;84549;-76
2020/12/02 12:20:14;;;;;;;17.10;5.70;;;4.30;99.10;;;;;;10389933;28;81689;-78
2020/12/02 12:25:21;;;;;;;15.60;6.07;;;4.40;99.10;;;;;;10389471;28;82301;-78
2020/12/02 12:30:23;;;;;;;18.70;5.37;;;4.40;99.10;;;;;;10390121;28;82742;-77
2020/12/02 12:35:28;;;;;;;15.20;5.20;;;4.40;99.10;;;;;;10396843;28;83686;-78
2020/12/02 12:40:35;;;;;;;16.43;5.53;;;4.30;99.10;;;;;;10392463;28;82185;-78
2020/12/02 12:45:41;;;;;;;15.03;5.90;;;4.30;99.00;;;;;;10396922;28;84087;-78
2020/12/02 12:50:45;;;;;;;16.00;6.30;;;4.30;99.00;;;;;;10395995;28;82684;-78
2020/12/02 12:55:47;;;;;;;16.27;5.53;;;4.40;99.10;;;;;;10395982;28;83230;-79
2020/12/02 13:00:50;;;;;;;13.40;5.30;;;4.30;99.10;;;;;;10395776;28;82557;-76
2020/12/02 13:06:18;;;;;;;21.13;6.67;;;4.20;99.10;;;;;;10394933;28;82658;-77
2020/12/02 13:11:36;;;;;;;17.33;5.47;;;4.20;98.90;;;;;;10393739;28;81401;-77
2020/12/02 13:16:45;;;;;;;16.03;5.60;;;4.20;99.10;;;;;;10393212;28;83535;-78
2020/12/02 13:21:54;;;;;;;14.57;5.13;;;4.20;99.10;;;;;;10395163;28;82570;-79
2020/12/02 13:27:00;;;;;;;20.17;6.03;;;4.00;99.10;;;;;;10395191;28;83120;-77
2020/12/02 13:32:09;;;;;;;13.50;4.80;;;3.90;99.20;;;;;;10393298;28;82860;-78
2020/12/02 13:37:15;;;;;;;14.03;5.30;;;3.90;99.20;;;;;;10390993;28;83851;-76
2020/12/02 13:42:16;;;;;;;20.83;5.70;;;3.90;99.30;;;;;;10396113;28;82411;-76
2020/12/02 13:47:19;;;;;;;14.60;4.87;;;3.70;99.30;;;;;;10391596;28;82402;-77
2020/12/02 13:52:28;;;;;;;20.13;6.53;;;3.70;99.40;;;;;;10390565;28;83633;-78
2020/12/02 13:57:41;;;;;;;18.83;5.97;;;3.70;99.60;;;;;;10393299;28;83527;-77
2020/12/02 14:02:57;;;;;;;20.17;5.93;;;3.70;99.60;;;;;;10390169;28;81146;-76
2020/12/02 14:08:00;;;;;;;16.23;5.93;;;3.70;99.70;;;;;;10384597;28;82565;-77
2020/12/02 14:13:05;;;;;;;18.47;5.83;;;3.70;99.70;;;;;;10392010;28;82606;-78
2020/12/02 14:18:08;;;;;;;14.77;5.63;;;3.70;99.80;;;;;;10387732;28;85001;-77
2020/12/02 14:23:14;;;;;;;16.33;6.27;;;3.80;99.80;;;;;;10382617;28;83807;-77
2020/12/02 14:28:17;;;;;;;17.37;5.97;;;3.70;99.80;;;;;;10394283;28;82671;-77
2020/12/02 14:33:21;;;;;;;13.87;5.27;;;3.60;99.80;;;;;;10391873;28;82583;-78
2020/12/02 14:38:24;;;;;;;16.23;5.57;;;3.60;99.80;;;;;;10384413;28;83214;-76
2020/12/02 14:43:31;;;;;;;15.63;5.70;;;3.70;99.80;;;;;;10388633;28;82742;-77
2020/12/02 14:48:36;;;;;;;20.57;6.43;;;3.60;99.90;;;;;;10392612;28;83620;-77
2020/12/02 14:53:39;;;;;;;19.27;6.20;;;3.60;99.90;;;;;;10382566;28;83756;-77
2020/12/02 14:58:53;;;;;;;17.43;5.67;;;3.60;99.90;;;;;;10396904;28;82555;-77
2020/12/02 15:03:58;;;;;;;16.07;5.00;;;3.60;99.90;;;;;;10397653;28;83245;-77
2020/12/02 15:09:15;;;;;;;18.30;6.93;;;3.60;99.80;;;;;;10398440;28;84239;-77
2020/12/02 15:14:19;;;;;;;12.83;5.23;;;3.60;99.90;;;;;;10393797;28;82633;-75
2020/12/02 15:19:20;;;;;;;12.57;4.27;;;3.50;99.80;;;;;;10393311;28;82490;-76
2020/12/02 15:24:24;;;;;;;14.87;5.43;;;3.50;99.80;;;;;;10388668;28;82697;-78
2020/12/02 15:29:27;;;;;;;13.30;5.60;;;3.50;99.90;;;;;;10400515;28;82152;-78
2020/12/02 15:34:29;;;;;;;12.43;5.03;;;3.40;99.90;;;;;;10390711;28;83825;-78
2020/12/02 15:39:39;;;;;;;15.87;4.93;;;3.50;99.90;;;;;;10395550;28;83415;-78
2020/12/02 15:44:55;;;;;;;17.00;6.13;;;3.50;99.90;;;;;;10391877;28;81719;-75
2020/12/02 15:50:07;;;;;;;11.90;4.70;;;3.50;99.90;;;;;;10395662;28;82543;-77
2020/12/02 15:55:30;;;;;;;13.33;5.00;;;3.50;99.90;;;;;;10396861;28;82570;-77
2020/12/02 16:00:32;;;;;;;17.50;5.43;;;3.30;99.90;;;;;;10392720;28;83479;-77
2020/12/02 16:05:35;;;;;;;15.90;4.47;;;3.20;99.90;;;;;;10387111;28;83288;-78
2020/12/02 16:10:39;;;;;;;13.53;4.87;;;3.20;99.90;;;;;;10377636;28;82589;-76
2020/12/02 16:15:41;;;;;;;15.37;4.63;;;3.20;99.90;;;;;;10374648;28;82704;-77
2020/12/02 16:20:43;;;;;;;10.47;4.43;;;3.20;99.90;;;;;;10375032;28;82585;-76
2020/12/02 16:25:50;;;;;;;12.50;5.23;;;3.20;99.80;;;;;;10374019;28;82728;-75
2020/12/02 16:30:52;;;;;;;17.97;6.50;;;3.30;99.90;;;;;;10371987;28;84913;-74
2020/12/02 16:35:54;;;;;;;14.30;4.87;;;3.30;99.90;;;;;;10376814;28;81658;-74
2020/12/02 16:40:59;;;;;;;13.00;5.30;;;3.30;99.90;;;;;;10374341;28;82673;-75
2020/12/02 16:46:08;;;;;;;16.43;5.93;;;3.30;99.90;;;;;;10374846;28;82939;-75
2020/12/02 16:51:16;;;;;;;18.27;7.40;;;3.20;99.90;;;;;;10366710;28;84457;-75
2020/12/02 17:01:52;;;;;;;21.33;5.80;;;3.20;99.90;;;;;;11932402;22;85056;-91
2020/12/02 17:06:54;;;;;;;15.80;5.77;;;3.20;99.90;;;;;;10344868;28;83407;-91
2020/12/02 17:12:23;;;;;;;17.70;5.70;;;3.20;99.90;;;;;;10347127;28;84271;-93
2020/12/02 17:17:55;;;;;;;17.83;4.80;;;3.30;99.90;;;;;;10348109;28;84501;-92
2020/12/02 17:23:19;;;;;;;14.73;5.43;;;3.30;99.90;;;;;;10349026;28;84506;-91
2020/12/02 17:29:07;;;;;;;18.27;6.80;;;3.20;99.90;;;;;;10266087;28;83547;-93
2020/12/02 17:40:41;;;;;;;15.10;5.13;;;3.20;99.90;;;;;;10220971;28;82048;-93
2020/12/02 17:45:52;;;;;;;14.33;5.50;;;3.20;99.90;;;;;;10185868;28;84213;-91
2020/12/02 17:51:05;;;;;;;14.10;5.17;;;3.20;99.90;;;;;;10184322;28;84088;-92
2020/12/02 17:56:20;;;;;;;16.27;5.23;;;3.20;99.90;;;;;;10170298;28;84840;-92
2020/12/02 18:01:57;;;;;;;20.90;7.07;;;3.20;99.90;;;;;;10169436;28;83300;-92
2020/12/02 18:07:19;;;;;;;16.20;5.63;;;3.20;99.90;;;;;;10303943;28;84652;-92
2020/12/02 18:12:38;;;;;;;19.53;6.83;;;3.20;99.90;;;;;;10288702;28;84708;-92
2020/12/02 18:17:55;;;;;;;14.93;5.60;;;3.20;99.90;;;;;;10306946;28;85563;-93
2020/12/02 18:23:09;;;;;;;12.77;5.70;;;3.20;99.90;;;;;;10308920;28;84149;-92
2020/12/02 18:29:01;;;;;;;15.37;5.43;;;3.20;99.90;;;;;;10312581;28;84790;-93
2020/12/02 18:34:33;;;;;;;14.00;6.10;;;3.20;99.90;;;;;;10207214;28;84311;-94
2020/12/02 18:39:51;;;;;;;18.40;6.37;;;3.10;99.90;;;;;;10206599;28;84320;-93
2020/12/02 18:44:53;;;;;;;15.63;5.23;;;3.10;99.90;;;;;;10206459;28;83702;-93
2020/12/02 18:50:07;;;;;;;15.30;5.20;;;3.00;99.90;;;;;;10206719;28;83415;-93
2020/12/02 18:55:12;;;;;;;16.23;5.87;;;3.00;99.90;;;;;;10206615;28;83845;-93
2020/12/02 19:00:40;;;;;;;14.00;5.50;;;3.00;99.90;;;;;;10227230;28;83438;-94
2020/12/02 19:05:50;;;;;;;14.00;5.57;;;2.90;99.90;;;;;;10212644;28;83951;-94
2020/12/02 19:10:58;;;;;;;17.97;6.73;;;2.90;99.90;;;;;;10314243;28;81772;-92
2020/12/02 19:16:07;;;;;;;17.47;6.47;;;2.90;99.90;;;;;;10311197;28;82471;-92
2020/12/02 19:21:17;;;;;;;19.53;5.97;;;2.90;99.90;;;;;;10333745;28;85696;-92
2020/12/02 19:26:28;;;;;;;19.20;6.07;;;2.90;99.90;;;;;;10319566;28;84705;-91
2020/12/02 19:31:35;;;;;;;19.97;6.30;;;2.90;99.90;;;;;;10311741;28;82696;-91
2020/12/02 19:37:02;;;;;;;17.40;6.30;;;2.80;99.90;;;;;;10304027;28;85134;-91
2020/12/02 19:42:25;;;;;;;12.07;5.33;;;2.80;99.90;;;;;;10309588;28;82852;-92
2020/12/02 19:47:38;;;;;;;19.37;6.70;;;2.80;99.90;;;;;;10302351;28;85725;-93
2020/12/02 19:52:51;;;;;;;18.63;7.23;;;2.70;99.90;;;;;;10312889;28;84669;-92
2020/12/02 19:58:03;;;;;;;17.00;6.37;;;2.70;99.90;;;;;;10233688;28;84703;-92
2020/12/02 20:03:20;;;;;;;25.03;6.70;;;2.70;99.90;;;;;;10237052;28;83133;-92
2020/12/02 20:08:33;;;;;;;21.07;6.73;;;2.70;99.80;;;;;;10240329;28;81975;-90
2020/12/02 20:13:49;;;;;;;19.00;6.80;;;2.80;99.60;;;;;;10232778;28;85349;-91
2020/12/02 20:19:04;;;;;;;17.43;6.70;;;2.70;99.70;;;;;;10238605;28;82754;-92
2020/12/02 20:24:26;;;;;;;18.83;6.17;;;2.70;99.70;;;;;;10224850;28;83672;-92
2020/12/02 20:29:38;;;;;;;17.67;5.77;;;2.70;99.70;;;;;;10311685;28;84374;-91
2020/12/02 20:34:45;;;;;;;25.40;7.87;;;2.70;99.70;;;;;;10319189;28;85668;-91
2020/12/02 20:39:51;;;;;;;18.77;6.43;;;2.70;99.70;;;;;;10335836;28;84948;-92
2020/12/02 20:44:55;;;;;;;22.80;6.70;;;2.70;99.70;;;;;;10349879;28;83819;-92
2020/12/02 20:50:30;;;;;;;24.00;7.23;;;2.70;99.90;;;;;;10337512;28;85983;-92
2020/12/02 20:55:36;;;;;;;19.40;7.37;;;2.70;99.90;;;;;;10358547;28;84828;-92
2020/12/02 21:00:38;;;;;;;22.33;8.33;;;2.60;99.90;;;;;;10350663;28;84123;-91
2020/12/02 21:05:40;;;;;;;15.40;5.73;;;2.60;99.90;;;;;;10273548;28;84083;-93
2020/12/02 21:10:45;;;;;;;21.33;7.40;;;2.60;99.90;;;;;;10256783;28;84904;-90
2020/12/02 21:15:48;;;;;;;17.53;6.77;;;2.60;99.90;;;;;;10273664;28;83722;-92
2020/12/02 21:20:58;;;;;;;17.33;6.63;;;2.60;99.90;;;;;;10274598;28;84734;-91
2020/12/02 21:26:08;;;;;;;18.70;7.43;;;2.60;99.90;;;;;;10273235;28;82330;-91
2020/12/02 21:31:20;;;;;;;25.20;7.17;;;2.50;99.90;;;;;;10248209;28;85742;-92
2020/12/02 21:36:34;;;;;;;22.27;7.47;;;2.50;99.90;;;;;;10315724;28;82221;-91
2020/12/02 21:41:39;;;;;;;20.17;6.97;;;2.50;99.90;;;;;;10311281;28;84092;-92
2020/12/02 21:47:07;;;;;;;22.43;7.37;;;2.50;99.90;;;;;;10296078;28;86411;-92
2020/12/02 21:52:29;;;;;;;18.23;7.33;;;2.50;99.90;;;;;;10251149;28;83245;-91
2020/12/02 21:57:33;;;;;;;21.57;7.23;;;2.50;99.90;;;;;;10286425;28;84969;-91
2020/12/02 22:03:00;;;;;;;24.70;7.57;;;2.50;99.90;;;;;;10294428;28;84352;-91
2020/12/02 22:08:09;;;;;;;22.57;7.60;;;2.40;99.90;;;;;;10325979;28;83971;-91
2020/12/02 22:13:20;;;;;;;19.10;6.33;;;2.40;99.90;;;;;;10280259;28;83982;-92
2020/12/02 22:18:31;;;;;;;17.17;7.13;;;2.40;99.90;;;;;;10306324;28;83939;-92
2020/12/02 22:23:43;;;;;;;17.33;6.80;;;2.40;99.90;;;;;;10314169;28;82762;-92
2020/12/02 22:28:47;;;;;;;24.70;7.17;;;2.40;99.90;;;;;;10318964;28;83878;-91
2020/12/02 22:34:18;;;;;;;25.90;7.70;;;2.40;99.90;;;;;;10274947;28;86121;-91
2020/12/02 22:39:49;;;;;;;19.80;7.37;;;2.40;99.90;;;;;;10230152;28;83492;-91
2020/12/02 22:45:01;;;;;;;21.40;7.07;;;2.40;99.90;;;;;;10246332;28;83833;-91
2020/12/02 22:50:11;;;;;;;18.13;7.33;;;2.40;99.90;;;;;;10254504;28;86008;-92
2020/12/02 22:55:22;;;;;;;18.77;7.03;;;2.40;99.90;;;;;;10299376;28;85067;-92
2020/12/02 23:00:33;;;;;;;21.50;6.63;;;2.40;99.90;;;;;;10276077;28;83911;-92
2020/12/02 23:05:44;;;;;;;18.97;6.40;;;2.30;99.90;;;;;;10285150;28;85387;-92
2020/12/02 23:10:47;;;;;;;17.43;6.57;;;2.30;99.90;;;;;;10296760;28;86161;-92
2020/12/02 23:15:59;;;;;;;17.07;6.57;;;2.20;99.90;;;;;;10318878;28;86129;-91
2020/12/02 23:21:05;;;;;;;19.70;6.73;;;2.20;99.90;;;;;;10358401;28;82896;-91
2020/12/02 23:26:07;;;;;;;18.77;7.07;;;2.10;99.90;;;;;;10357333;28;82722;-92
2020/12/02 23:31:20;;;;;;;20.30;8.83;;;2.10;99.90;;;;;;10401091;28;84060;-90
2020/12/02 23:36:24;;;;;;;15.73;6.63;;;2.00;99.90;;;;;;10396472;28;83468;-92
2020/12/02 23:41:33;;;;;;;17.10;6.03;;;2.00;99.90;;;;;;10402256;28;82062;-92
2020/12/02 23:46:47;;;;;;;18.23;7.53;;;1.90;99.90;;;;;;10399678;28;83160;-91
2020/12/02 23:51:49;;;;;;;19.23;6.40;;;1.90;99.90;;;;;;10382607;28;86478;-91
2020/12/02 23:56:54;;;;;;;24.40;7.33;;;1.80;99.90;;;;;;10313100;28;86221;-92
